createdAt,value
2019-03-30T00:00:59.352Z,5.81
2019-03-30T00:01:59.344Z,5.74
2019-03-30T00:02:59.337Z,5.65
2019-03-30T00:03:59.324Z,5.76
2019-03-30T00:04:59.312Z,5.74
2019-03-30T00:05:59.300Z,5.72
2019-03-30T00:06:59.289Z,5.78
2019-03-30T00:07:59.276Z,5.65
2019-03-30T00:08:59.274Z,5.63
2019-03-30T00:09:59.261Z,5.63
2019-03-30T00:10:59.260Z,5.60
2019-03-30T00:11:59.244Z,5.65
2019-03-30T00:12:59.237Z,5.67
2019-03-30T00:13:59.218Z,5.64
2019-03-30T00:14:59.202Z,5.68
2019-03-30T00:15:59.203Z,5.63
2019-03-30T00:16:59.191Z,5.68
2019-03-30T00:17:59.175Z,5.60
2019-03-30T00:18:59.162Z,5.49
2019-03-30T00:19:59.155Z,5.58
2019-03-30T00:20:59.149Z,5.48
2019-03-30T00:21:59.129Z,5.60
2019-03-30T00:22:59.132Z,5.57
2019-03-30T00:23:59.107Z,5.51
2019-03-30T00:24:59.097Z,5.49
2019-03-30T00:25:59.096Z,5.38
2019-03-30T00:26:59.088Z,5.45
2019-03-30T00:27:59.067Z,5.40
2019-03-30T00:28:59.055Z,5.49
2019-03-30T00:29:59.047Z,5.39
2019-03-30T00:30:59.035Z,5.43
2019-03-30T00:31:59.045Z,5.31
2019-03-30T00:32:59.019Z,5.43
2019-03-30T00:33:59.009Z,5.40
2019-03-30T00:34:58.998Z,5.46
2019-03-30T00:35:58.979Z,5.49
2019-03-30T00:36:58.975Z,5.43
2019-03-30T00:37:58.963Z,5.40
2019-03-30T00:38:58.955Z,5.39
2019-03-30T00:39:58.936Z,5.43
2019-03-30T00:40:58.934Z,5.35
2019-03-30T00:41:58.921Z,5.33
2019-03-30T00:42:58.907Z,5.42
2019-03-30T00:43:58.895Z,5.40
2019-03-30T00:44:58.884Z,5.38
2019-03-30T00:45:58.875Z,5.43
2019-03-30T00:46:58.865Z,5.38
2019-03-30T00:47:58.856Z,5.31
2019-03-30T00:48:58.849Z,5.30
2019-03-30T00:49:58.833Z,5.40
2019-03-30T00:50:58.830Z,5.42
2019-03-30T00:51:58.815Z,5.36
2019-03-30T00:52:58.802Z,5.36
2019-03-30T00:53:58.793Z,5.35
2019-03-30T00:54:58.784Z,5.35
2019-03-30T00:55:58.775Z,5.36
2019-03-30T00:56:58.764Z,5.38
2019-03-30T00:57:58.757Z,5.33
2019-03-30T00:58:58.738Z,5.39
2019-03-30T00:59:58.733Z,5.35
2019-03-30T01:00:58.720Z,5.36
2019-03-30T01:01:58.717Z,5.36
2019-03-30T01:02:58.697Z,5.35
2019-03-30T01:03:58.690Z,5.36
2019-03-30T01:04:58.669Z,5.35
2019-03-30T01:05:58.671Z,5.39
2019-03-30T01:06:58.655Z,5.40
2019-03-30T01:07:58.649Z,5.33
2019-03-30T01:08:58.631Z,5.33
2019-03-30T01:09:58.620Z,5.31
2019-03-30T01:10:58.613Z,5.27
2019-03-30T01:11:58.609Z,5.25
2019-03-30T01:12:58.593Z,5.18
2019-03-30T01:13:58.582Z,5.27
2019-03-30T01:14:58.568Z,5.28
2019-03-30T01:15:58.552Z,5.27
2019-03-30T01:16:58.548Z,5.09
2019-03-30T01:17:58.533Z,5.21
2019-03-30T01:18:58.533Z,5.15
2019-03-30T01:20:03.152Z,5.24
2019-03-30T01:20:59.500Z,5.25
2019-03-30T01:21:58.495Z,5.28
2019-03-30T01:22:58.479Z,5.18
2019-03-30T01:23:58.470Z,5.28
2019-03-30T01:24:58.461Z,5.25
2019-03-30T01:25:58.448Z,5.22
2019-03-30T01:26:58.442Z,5.27
2019-03-30T01:27:58.429Z,5.25
2019-03-30T01:28:58.423Z,5.25
2019-03-30T01:29:58.416Z,5.24
2019-03-30T01:30:58.403Z,5.28
2019-03-30T01:31:58.384Z,5.27
2019-03-30T01:32:58.369Z,5.22
2019-03-30T01:33:58.362Z,5.21
2019-03-30T01:34:58.398Z,5.31
2019-03-30T01:35:58.415Z,5.24
2019-03-30T01:36:58.327Z,5.24
2019-03-30T01:37:58.334Z,5.24
2019-03-30T01:38:58.307Z,5.09
2019-03-30T01:39:58.302Z,5.27
2019-03-30T01:40:58.282Z,5.18
2019-03-30T01:41:58.280Z,5.24
2019-03-30T01:42:58.264Z,5.15
2019-03-30T01:43:58.256Z,5.22
2019-03-30T01:44:58.242Z,5.24
2019-03-30T01:45:58.240Z,5.25
2019-03-30T01:46:58.221Z,5.28
2019-03-30T01:47:58.217Z,5.22
2019-03-30T01:48:58.200Z,5.22
2019-03-30T01:49:58.210Z,5.22
2019-03-30T01:50:58.180Z,5.24
2019-03-30T01:51:58.166Z,5.22
2019-03-30T01:52:58.154Z,5.20
2019-03-30T01:53:58.146Z,5.25
2019-03-30T01:54:58.135Z,5.22
2019-03-30T01:55:58.131Z,5.20
2019-03-30T01:56:58.119Z,5.15
2019-03-30T01:57:58.108Z,5.15
2019-03-30T01:58:58.096Z,5.09
2019-03-30T01:59:58.083Z,5.15
2019-03-30T02:00:58.068Z,5.17
2019-03-30T02:01:58.063Z,5.24
2019-03-30T02:02:58.054Z,5.18
2019-03-30T02:03:58.038Z,5.12
2019-03-30T02:04:58.034Z,5.20
2019-03-30T02:05:58.016Z,5.18
2019-03-30T02:06:58.009Z,5.18
2019-03-30T02:07:57.998Z,5.33
2019-03-30T02:08:57.984Z,5.27
2019-03-30T02:09:57.974Z,5.24
2019-03-30T02:10:57.964Z,5.07
2019-03-30T02:11:57.957Z,5.18
2019-03-30T02:12:57.944Z,5.22
2019-03-30T02:13:57.934Z,5.25
2019-03-30T02:14:57.921Z,5.20
2019-03-30T02:15:57.915Z,5.12
2019-03-30T02:16:57.901Z,5.24
2019-03-30T02:17:57.886Z,5.12
2019-03-30T02:18:57.876Z,5.09
2019-03-30T02:19:57.874Z,5.15
2019-03-30T02:20:57.863Z,5.20
2019-03-30T02:21:57.872Z,5.20
2019-03-30T02:22:57.834Z,5.22
2019-03-30T02:23:57.818Z,5.17
2019-03-30T02:24:57.830Z,5.13
2019-03-30T02:25:57.806Z,5.09
2019-03-30T02:26:57.804Z,5.10
2019-03-30T02:27:57.777Z,5.10
2019-03-30T02:28:57.774Z,5.18
2019-03-30T02:29:57.762Z,5.06
2019-03-30T02:30:57.756Z,5.06
2019-03-30T02:31:57.743Z,5.15
2019-03-30T02:32:57.727Z,5.17
2019-03-30T02:33:57.716Z,5.17
2019-03-30T02:34:57.706Z,5.13
2019-03-30T02:35:57.697Z,5.24
2019-03-30T02:36:57.700Z,5.20
2019-03-30T02:37:57.684Z,5.22
2019-03-30T02:38:57.688Z,5.17
2019-03-30T02:39:57.648Z,5.18
2019-03-30T02:40:57.647Z,5.18
2019-03-30T02:41:57.635Z,5.18
2019-03-30T02:42:57.622Z,5.17
2019-03-30T02:43:57.615Z,5.21
2019-03-30T02:44:57.602Z,5.06
2019-03-30T02:45:57.583Z,5.07
2019-03-30T02:46:57.571Z,5.06
2019-03-30T02:47:57.578Z,5.00
2019-03-30T02:48:57.567Z,5.07
2019-03-30T02:49:57.558Z,5.09
2019-03-30T02:50:57.525Z,5.07
2019-03-30T02:51:57.519Z,5.09
2019-03-30T02:52:57.522Z,5.06
2019-03-30T02:53:57.500Z,5.10
2019-03-30T02:54:57.495Z,5.04
2019-03-30T02:55:57.506Z,5.07
2019-03-30T02:56:57.468Z,5.04
2019-03-30T02:57:57.456Z,5.09
2019-03-30T02:58:57.448Z,5.09
2019-03-30T02:59:57.443Z,5.03
2019-03-30T03:00:57.435Z,5.04
2019-03-30T03:01:57.418Z,5.06
2019-03-30T03:02:57.407Z,5.10
2019-03-30T03:03:57.393Z,5.06
2019-03-30T03:04:57.379Z,5.07
2019-03-30T03:05:57.369Z,5.02
2019-03-30T03:06:57.366Z,5.10
2019-03-30T03:07:57.348Z,5.09
2019-03-30T03:08:57.339Z,5.06
2019-03-30T03:09:57.323Z,5.10
2019-03-30T03:10:57.317Z,5.12
2019-03-30T03:11:57.314Z,5.03
2019-03-30T03:12:57.306Z,5.10
2019-03-30T03:13:57.279Z,5.06
2019-03-30T03:14:57.273Z,5.04
2019-03-30T03:15:57.265Z,5.10
2019-03-30T03:16:57.249Z,5.10
2019-03-30T03:17:57.249Z,5.17
2019-03-30T03:18:57.230Z,5.10
2019-03-30T03:19:57.219Z,5.03
2019-03-30T03:21:07.490Z,5.07
2019-03-30T03:21:58.205Z,5.04
2019-03-30T03:22:57.187Z,5.10
2019-03-30T03:23:57.180Z,5.03
2019-03-30T03:24:57.168Z,5.02
2019-03-30T03:25:57.158Z,5.02
2019-03-30T03:26:57.143Z,5.03
2019-03-30T03:27:57.127Z,4.97
2019-03-30T03:28:57.122Z,4.99
2019-03-30T03:29:57.128Z,4.99
2019-03-30T03:30:57.101Z,4.96
2019-03-30T03:31:57.109Z,4.99
2019-03-30T03:32:57.077Z,4.97
2019-03-30T03:33:57.069Z,4.99
2019-03-30T03:34:57.062Z,4.94
2019-03-30T03:35:57.043Z,4.89
2019-03-30T03:36:57.037Z,4.97
2019-03-30T03:37:57.028Z,4.86
2019-03-30T03:38:57.016Z,4.86
2019-03-30T03:39:57.007Z,4.92
2019-03-30T03:40:57.000Z,4.89
2019-03-30T03:41:56.983Z,4.94
2019-03-30T03:42:56.971Z,4.94
2019-03-30T03:43:56.965Z,4.85
2019-03-30T03:44:56.954Z,4.84
2019-03-30T03:45:56.946Z,4.84
2019-03-30T03:46:56.926Z,4.69
2019-03-30T03:47:56.928Z,4.82
2019-03-30T03:48:56.910Z,4.86
2019-03-30T03:49:56.903Z,4.82
2019-03-30T03:50:56.884Z,4.86
2019-03-30T03:51:56.874Z,4.84
2019-03-30T03:52:56.874Z,4.89
2019-03-30T03:53:56.987Z,4.89
2019-03-30T03:54:56.845Z,4.82
2019-03-30T03:55:56.841Z,4.92
2019-03-30T03:56:56.816Z,4.84
2019-03-30T03:57:56.813Z,4.88
2019-03-30T03:58:56.801Z,4.86
2019-03-30T03:59:56.791Z,4.80
2019-03-30T04:00:56.781Z,4.77
2019-03-30T04:01:56.778Z,4.77
2019-03-30T04:02:56.762Z,4.73
2019-03-30T04:03:56.756Z,4.75
2019-03-30T04:04:56.737Z,4.75
2019-03-30T04:05:56.738Z,4.80
2019-03-30T04:06:56.709Z,4.73
2019-03-30T04:07:56.702Z,4.75
2019-03-30T04:08:56.701Z,4.75
2019-03-30T04:09:56.679Z,4.75
2019-03-30T04:10:56.679Z,4.78
2019-03-30T04:11:56.677Z,4.72
2019-03-30T04:12:56.647Z,4.77
2019-03-30T04:13:56.641Z,4.70
2019-03-30T04:14:56.632Z,4.70
2019-03-30T04:15:56.615Z,4.78
2019-03-30T04:16:56.618Z,4.63
2019-03-30T04:17:56.593Z,4.55
2019-03-30T04:18:56.594Z,4.60
2019-03-30T04:19:56.575Z,4.55
2019-03-30T04:20:56.559Z,4.52
2019-03-30T04:21:56.548Z,4.59
2019-03-30T04:22:56.550Z,4.48
2019-03-30T04:23:56.530Z,4.54
2019-03-30T04:24:56.526Z,4.48
2019-03-30T04:25:56.513Z,4.47
2019-03-30T04:26:56.508Z,4.52
2019-03-30T04:27:56.487Z,4.54
2019-03-30T04:28:56.486Z,4.51
2019-03-30T04:29:56.471Z,4.60
2019-03-30T04:30:56.457Z,4.65
2019-03-30T04:31:56.558Z,4.63
2019-03-30T04:32:56.451Z,4.63
2019-03-30T04:33:56.425Z,4.65
2019-03-30T04:34:56.417Z,4.65
2019-03-30T04:35:56.403Z,4.63
2019-03-30T04:36:56.394Z,4.63
2019-03-30T04:37:56.388Z,4.59
2019-03-30T04:38:56.370Z,4.59
2019-03-30T04:39:56.366Z,4.59
2019-03-30T04:40:56.354Z,4.67
2019-03-30T04:41:56.339Z,4.62
2019-03-30T04:42:56.332Z,4.59
2019-03-30T04:43:56.316Z,4.59
2019-03-30T04:44:56.306Z,4.62
2019-03-30T04:45:56.293Z,4.63
2019-03-30T04:46:56.286Z,4.65
2019-03-30T04:47:56.282Z,4.66
2019-03-30T04:48:56.275Z,4.65
2019-03-30T04:49:56.255Z,4.70
2019-03-30T04:50:56.240Z,4.62
2019-03-30T04:51:57.649Z,4.62
2019-03-30T04:52:56.228Z,4.62
2019-03-30T04:53:56.212Z,4.59
2019-03-30T04:54:56.211Z,4.59
2019-03-30T04:55:56.188Z,4.55
2019-03-30T04:56:56.180Z,4.62
2019-03-30T04:57:57.704Z,4.52
2019-03-30T04:58:56.157Z,4.62
2019-03-30T04:59:56.156Z,4.65
2019-03-30T05:00:56.136Z,4.48
2019-03-30T05:01:56.127Z,4.54
2019-03-30T05:02:56.204Z,4.52
2019-03-30T05:03:56.105Z,4.47
2019-03-30T05:04:56.093Z,4.55
2019-03-30T05:05:56.107Z,4.54
2019-03-30T05:06:56.074Z,4.52
2019-03-30T05:07:56.056Z,4.51
2019-03-30T05:08:56.050Z,4.47
2019-03-30T05:09:56.049Z,4.55
2019-03-30T05:10:56.045Z,4.51
2019-03-30T05:11:56.026Z,4.52
2019-03-30T05:12:56.011Z,4.54
2019-03-30T05:13:55.998Z,4.55
2019-03-30T05:14:55.987Z,4.59
2019-03-30T05:15:55.972Z,4.58
2019-03-30T05:16:55.972Z,4.66
2019-03-30T05:17:55.954Z,4.65
2019-03-30T05:18:55.948Z,4.67
2019-03-30T05:19:55.928Z,4.72
2019-03-30T05:20:55.917Z,4.80
2019-03-30T05:21:55.924Z,4.77
2019-03-30T05:22:55.902Z,4.80
2019-03-30T05:23:55.886Z,4.73
2019-03-30T05:24:55.882Z,4.75
2019-03-30T05:25:55.864Z,4.75
2019-03-30T05:26:55.860Z,4.85
2019-03-30T05:27:55.851Z,4.85
2019-03-30T05:28:55.845Z,4.91
2019-03-30T05:29:55.826Z,4.94
2019-03-30T05:30:55.818Z,4.94
2019-03-30T05:31:55.805Z,4.99
2019-03-30T05:33:05.447Z,4.97
2019-03-30T05:33:56.789Z,5.00
2019-03-30T05:34:55.785Z,5.07
2019-03-30T05:35:55.761Z,5.07
2019-03-30T05:36:55.750Z,5.06
2019-03-30T05:37:55.744Z,5.06
2019-03-30T05:38:55.741Z,5.07
2019-03-30T05:39:55.730Z,5.07
2019-03-30T05:40:55.784Z,5.09
2019-03-30T05:41:55.694Z,5.07
2019-03-30T05:42:55.684Z,5.13
2019-03-30T05:43:55.701Z,5.13
2019-03-30T05:44:57.828Z,5.20
2019-03-30T05:45:55.659Z,5.15
2019-03-30T05:46:55.637Z,5.12
2019-03-30T05:47:55.635Z,5.13
2019-03-30T05:48:55.623Z,5.18
2019-03-30T05:49:55.684Z,5.04
2019-03-30T05:50:55.610Z,5.20
2019-03-30T05:51:55.583Z,5.25
2019-03-30T05:52:55.585Z,5.15
2019-03-30T05:53:55.567Z,5.28
2019-03-30T05:54:55.562Z,5.27
2019-03-30T05:55:55.557Z,5.28
2019-03-30T05:56:55.539Z,5.27
2019-03-30T05:57:55.522Z,5.31
2019-03-30T05:58:55.514Z,5.43
2019-03-30T05:59:56.043Z,5.46
2019-03-30T06:00:55.514Z,5.51
2019-03-30T06:01:55.486Z,5.48
2019-03-30T06:02:55.476Z,5.53
2019-03-30T06:03:55.462Z,5.45
2019-03-30T06:04:55.457Z,5.60
2019-03-30T06:05:55.442Z,5.60
2019-03-30T06:06:55.454Z,5.68
2019-03-30T06:07:55.422Z,5.65
2019-03-30T06:08:55.413Z,5.64
2019-03-30T06:09:55.400Z,5.63
2019-03-30T06:10:55.386Z,5.76
2019-03-30T06:11:55.385Z,6.01
2019-03-30T06:12:55.375Z,6.44
2019-03-30T06:13:55.364Z,6.98
2019-03-30T06:14:55.366Z,7.85
2019-03-30T06:15:55.334Z,8.38
2019-03-30T06:16:55.317Z,8.86
2019-03-30T06:17:55.317Z,9.31
2019-03-30T06:18:55.304Z,9.79
2019-03-30T06:19:55.298Z,10.32
2019-03-30T06:20:55.304Z,10.76
2019-03-30T06:21:55.266Z,10.97
2019-03-30T06:22:55.258Z,10.99
2019-03-30T06:23:55.255Z,11.03
2019-03-30T06:24:55.243Z,11.40
2019-03-30T06:25:55.231Z,11.78
2019-03-30T06:26:55.217Z,11.85
2019-03-30T06:27:55.211Z,12.19
2019-03-30T06:28:55.197Z,12.54
2019-03-30T06:29:55.176Z,12.37
2019-03-30T06:30:55.182Z,12.67
2019-03-30T06:31:55.164Z,12.47
2019-03-30T06:32:55.153Z,12.34
2019-03-30T06:33:55.140Z,12.07
2019-03-30T06:34:55.130Z,11.80
2019-03-30T06:35:55.118Z,11.72
2019-03-30T06:36:55.112Z,11.73
2019-03-30T06:37:55.093Z,12.45
2019-03-30T06:38:55.101Z,12.87
2019-03-30T06:39:55.074Z,13.17
2019-03-30T06:40:55.068Z,13.45
2019-03-30T06:41:55.065Z,13.62
2019-03-30T06:42:55.059Z,13.57
2019-03-30T06:43:55.026Z,13.89
2019-03-30T06:44:55.025Z,13.28
2019-03-30T06:45:55.019Z,13.39
2019-03-30T06:46:55.003Z,13.97
2019-03-30T06:47:54.996Z,13.99
2019-03-30T06:48:54.974Z,14.64
2019-03-30T06:49:54.964Z,14.96
2019-03-30T06:50:54.970Z,14.89
2019-03-30T06:51:55.016Z,13.91
2019-03-30T06:52:57.809Z,13.05
2019-03-30T06:53:54.926Z,12.75
2019-03-30T06:54:54.913Z,12.19
2019-03-30T06:55:54.911Z,11.54
2019-03-30T06:56:54.890Z,11.10
2019-03-30T06:57:54.913Z,10.78
2019-03-30T06:58:54.874Z,10.52
2019-03-30T06:59:54.866Z,10.26
2019-03-30T07:00:54.858Z,9.99
2019-03-30T07:01:54.850Z,9.91
2019-03-30T07:02:54.848Z,9.71
2019-03-30T07:03:54.850Z,9.56
2019-03-30T07:04:54.845Z,9.40
2019-03-30T07:05:54.793Z,9.32
2019-03-30T07:06:54.781Z,9.42
2019-03-30T07:07:54.776Z,9.47
2019-03-30T07:08:54.780Z,9.48
2019-03-30T07:09:54.753Z,9.58
2019-03-30T07:10:54.742Z,9.65
2019-03-30T07:11:54.727Z,9.78
2019-03-30T07:12:54.721Z,9.91
2019-03-30T07:13:54.712Z,10.18
2019-03-30T07:14:54.783Z,10.47
2019-03-30T07:15:54.689Z,10.47
2019-03-30T07:16:54.681Z,10.32
2019-03-30T07:17:54.664Z,10.29
2019-03-30T07:18:54.655Z,10.33
2019-03-30T07:19:54.641Z,10.38
2019-03-30T07:20:54.632Z,10.34
2019-03-30T07:21:54.619Z,10.59
2019-03-30T07:22:54.626Z,10.55
2019-03-30T07:23:54.608Z,10.60
2019-03-30T07:24:54.626Z,10.47
2019-03-30T07:25:54.582Z,10.60
2019-03-30T07:26:54.567Z,10.60
2019-03-30T07:27:54.560Z,10.60
2019-03-30T07:28:54.551Z,10.86
2019-03-30T07:29:54.537Z,10.91
2019-03-30T07:30:54.525Z,10.82
2019-03-30T07:31:54.510Z,10.94
2019-03-30T07:32:54.504Z,10.97
2019-03-30T07:33:54.494Z,11.02
2019-03-30T07:34:54.483Z,11.07
2019-03-30T07:35:54.470Z,11.19
2019-03-30T07:36:54.465Z,11.39
2019-03-30T07:37:54.453Z,11.61
2019-03-30T07:38:54.438Z,11.78
2019-03-30T07:39:54.432Z,12.10
2019-03-30T07:40:54.410Z,12.34
2019-03-30T07:41:54.409Z,12.54
2019-03-30T07:42:54.415Z,12.74
2019-03-30T07:43:54.385Z,13.20
2019-03-30T07:44:54.378Z,13.79
2019-03-30T07:45:54.364Z,14.29
2019-03-30T07:46:54.348Z,14.75
2019-03-30T07:47:54.346Z,15.50
2019-03-30T07:48:54.339Z,15.82
2019-03-30T07:49:54.324Z,16.28
2019-03-30T07:50:54.306Z,17.07
2019-03-30T07:51:54.307Z,17.58
2019-03-30T07:52:54.291Z,18.12
2019-03-30T07:53:54.284Z,17.92
2019-03-30T07:54:54.268Z,17.48
2019-03-30T07:56:07.440Z,17.03
2019-03-30T07:57:05.077Z,17.99
2019-03-30T07:57:55.283Z,17.87
2019-03-30T07:58:54.223Z,18.78
2019-03-30T07:59:54.222Z,19.69
2019-03-30T08:00:54.203Z,20.33
2019-03-30T08:01:54.196Z,20.50
2019-03-30T08:02:54.178Z,19.76
2019-03-30T08:03:54.190Z,20.64
2019-03-30T08:04:54.156Z,20.33
2019-03-30T08:05:54.561Z,20.91
2019-03-30T08:06:54.142Z,21.35
2019-03-30T08:07:54.120Z,22.12
2019-03-30T08:08:54.122Z,22.45
2019-03-30T08:09:54.115Z,22.47
2019-03-30T08:10:54.094Z,21.74
2019-03-30T08:11:54.086Z,22.27
2019-03-30T08:12:54.086Z,22.95
2019-03-30T08:13:54.076Z,23.28
2019-03-30T08:14:54.057Z,22.64
2019-03-30T08:15:54.056Z,22.49
2019-03-30T08:16:54.033Z,21.69
2019-03-30T08:17:54.021Z,20.57
2019-03-30T08:18:54.013Z,19.40
2019-03-30T08:19:54.004Z,19.88
2019-03-30T08:20:53.986Z,20.58
2019-03-30T08:21:53.985Z,19.98
2019-03-30T08:22:53.974Z,20.03
2019-03-30T08:23:53.964Z,20.59
2019-03-30T08:24:53.950Z,20.99
2019-03-30T08:25:53.942Z,20.95
2019-03-30T08:26:53.935Z,22.07
2019-03-30T08:27:53.921Z,22.24
2019-03-30T08:28:53.917Z,22.12
2019-03-30T08:29:53.909Z,20.70
2019-03-30T08:30:53.894Z,21.47
2019-03-30T08:31:53.879Z,21.79
2019-03-30T08:32:53.868Z,21.92
2019-03-30T08:33:53.856Z,22.21
2019-03-30T08:34:53.875Z,22.28
2019-03-30T08:35:53.845Z,22.55
2019-03-30T08:36:53.847Z,23.02
2019-03-30T08:37:53.821Z,22.61
2019-03-30T08:38:53.810Z,22.58
2019-03-30T08:39:53.859Z,22.77
2019-03-30T08:40:53.806Z,22.55
2019-03-30T08:41:53.783Z,23.20
2019-03-30T08:42:53.788Z,24.13
2019-03-30T08:43:53.759Z,24.31
2019-03-30T08:44:53.752Z,23.72
2019-03-30T08:45:53.733Z,23.65
2019-03-30T08:46:53.738Z,23.42
2019-03-30T08:47:53.725Z,22.07
2019-03-30T08:48:53.723Z,21.49
2019-03-30T08:49:53.698Z,21.61
2019-03-30T08:50:53.705Z,21.42
2019-03-30T08:51:53.682Z,21.92
2019-03-30T08:52:53.683Z,23.17
2019-03-30T08:53:54.742Z,23.95
2019-03-30T08:54:53.659Z,24.30
2019-03-30T08:55:53.672Z,23.98
2019-03-30T08:56:53.631Z,22.54
2019-03-30T08:57:53.627Z,22.62
2019-03-30T08:58:53.620Z,23.13
2019-03-30T08:59:53.607Z,23.31
2019-03-30T09:00:53.632Z,23.70
2019-03-30T09:01:53.589Z,24.24
2019-03-30T09:02:53.581Z,25.17
2019-03-30T09:03:53.567Z,24.96
2019-03-30T09:04:53.566Z,24.83
2019-03-30T09:05:53.549Z,24.03
2019-03-30T09:06:53.559Z,24.27
2019-03-30T09:07:53.533Z,23.79
2019-03-30T09:08:53.526Z,23.68
2019-03-30T09:09:53.509Z,23.58
2019-03-30T09:10:53.513Z,22.95
2019-03-30T09:11:53.494Z,22.67
2019-03-30T09:12:53.487Z,19.77
2019-03-30T09:13:53.483Z,19.25
2019-03-30T09:14:53.469Z,19.37
2019-03-30T09:15:53.452Z,19.69
2019-03-30T09:16:53.452Z,19.92
2019-03-30T09:17:53.435Z,20.17
2019-03-30T09:18:53.435Z,20.80
2019-03-30T09:19:53.414Z,19.96
2019-03-30T09:20:53.413Z,19.87
2019-03-30T09:21:53.393Z,19.65
2019-03-30T09:22:53.392Z,19.91
2019-03-30T09:23:53.379Z,20.17
2019-03-30T09:24:53.383Z,20.36
2019-03-30T09:25:53.359Z,20.21
2019-03-30T09:26:53.343Z,20.26
2019-03-30T09:27:53.339Z,20.99
2019-03-30T09:28:53.355Z,20.85
2019-03-30T09:29:53.321Z,21.06
2019-03-30T09:30:53.313Z,21.67
2019-03-30T09:31:53.297Z,20.98
2019-03-30T09:32:53.294Z,21.44
2019-03-30T09:33:53.276Z,22.35
2019-03-30T09:34:53.288Z,22.67
2019-03-30T09:35:53.264Z,22.42
2019-03-30T09:36:53.348Z,22.28
2019-03-30T09:37:53.239Z,22.28
2019-03-30T09:38:53.243Z,22.51
2019-03-30T09:39:53.226Z,22.68
2019-03-30T09:40:53.208Z,21.61
2019-03-30T09:41:53.212Z,21.27
2019-03-30T09:42:53.205Z,20.95
2019-03-30T09:43:53.181Z,21.27
2019-03-30T09:44:53.178Z,21.58
2019-03-30T09:45:53.163Z,21.44
2019-03-30T09:46:53.155Z,21.82
2019-03-30T09:47:53.146Z,21.90
2019-03-30T09:48:53.153Z,21.68
2019-03-30T09:49:53.127Z,20.82
2019-03-30T09:50:53.122Z,20.13
2019-03-30T09:51:53.109Z,19.91
2019-03-30T09:52:53.098Z,20.79
2019-03-30T09:53:53.094Z,21.24
2019-03-30T09:54:53.077Z,21.62
2019-03-30T09:55:53.069Z,21.61
2019-03-30T09:56:53.059Z,21.88
2019-03-30T09:57:53.072Z,22.12
2019-03-30T09:58:53.047Z,21.09
2019-03-30T09:59:53.032Z,20.13
2019-03-30T10:00:53.030Z,20.01
2019-03-30T10:01:53.011Z,19.92
2019-03-30T10:02:53.000Z,19.68
2019-03-30T10:03:52.990Z,19.54
2019-03-30T10:04:52.990Z,19.10
2019-03-30T10:05:52.971Z,18.33
2019-03-30T10:06:52.971Z,18.76
2019-03-30T10:07:52.952Z,18.78
2019-03-30T10:08:52.938Z,18.29
2019-03-30T10:09:52.944Z,17.97
2019-03-30T10:10:52.927Z,18.32
2019-03-30T10:46:08.163Z,20.64
2019-03-30T10:47:08.128Z,20.01
2019-03-30T11:39:18.663Z,21.28
2019-03-30T11:40:18.638Z,21.32
2019-03-30T11:41:49.372Z,21.21
2019-03-30T11:42:49.351Z,21.24
2019-03-30T11:44:20.113Z,21.31
2019-03-30T11:45:20.094Z,21.42
2019-03-30T11:46:50.827Z,21.42
2019-03-30T11:47:50.801Z,21.47
2019-03-30T11:49:21.470Z,21.47
2019-03-30T11:50:21.462Z,21.50
2019-03-30T11:51:52.209Z,21.24
2019-03-30T11:52:52.182Z,21.21
2019-03-30T11:54:22.936Z,21.47
2019-03-30T11:55:22.935Z,21.62
2019-03-30T11:56:53.687Z,21.88
2019-03-30T11:57:53.653Z,21.98
2019-03-30T11:59:24.369Z,22.05
2019-03-30T12:00:24.362Z,22.02
2019-03-30T12:01:55.044Z,21.88
2019-03-30T12:02:55.026Z,21.19
2019-03-30T12:04:25.789Z,20.70
2019-03-30T12:05:25.774Z,20.89
2019-03-30T12:06:56.414Z,21.06
2019-03-30T12:07:56.411Z,20.18
2019-03-30T12:09:27.192Z,19.73
2019-03-30T12:10:27.125Z,19.76
2019-03-30T12:11:57.884Z,19.54
2019-03-30T12:12:57.862Z,19.91
2019-03-30T12:13:57.853Z,20.47
2019-03-30T12:14:57.916Z,21.06
2019-03-30T12:15:57.830Z,21.44
2019-03-30T12:16:57.816Z,21.69
2019-03-30T12:17:57.808Z,21.75
2019-03-30T12:18:57.811Z,21.77
2019-03-30T12:19:57.794Z,21.90
2019-03-30T12:20:57.783Z,21.58
2019-03-30T12:21:57.774Z,21.13
2019-03-30T12:22:57.758Z,20.70
2019-03-30T12:23:57.757Z,20.29
2019-03-30T12:24:57.730Z,20.36
2019-03-30T12:25:57.729Z,20.74
2019-03-30T12:26:57.719Z,20.94
2019-03-30T12:27:57.766Z,21.32
2019-03-30T12:28:57.698Z,21.65
2019-03-30T12:29:57.693Z,21.67
2019-03-30T12:30:57.672Z,21.92
2019-03-30T12:31:57.662Z,22.10
2019-03-30T12:32:57.662Z,22.42
2019-03-30T12:33:57.645Z,22.09
2019-03-30T12:34:57.630Z,21.94
2019-03-30T12:35:57.615Z,22.06
2019-03-30T12:36:57.627Z,21.99
2019-03-30T12:37:57.590Z,22.17
2019-03-30T12:38:57.601Z,22.15
2019-03-30T12:39:58.428Z,21.71
2019-03-30T12:40:57.572Z,21.59
2019-03-30T12:41:57.554Z,21.47
2019-03-30T12:42:57.532Z,21.21
2019-03-30T12:43:57.534Z,20.59
2019-03-30T12:44:57.518Z,20.87
2019-03-30T12:45:57.513Z,20.36
2019-03-30T12:46:57.506Z,20.03
2019-03-30T12:47:57.492Z,20.05
2019-03-30T12:48:57.556Z,20.01
2019-03-30T12:49:57.466Z,20.06
2019-03-30T12:50:57.448Z,20.33
2019-03-30T12:51:57.458Z,20.51
2019-03-30T12:52:57.432Z,20.59
2019-03-30T12:53:57.430Z,20.59
2019-03-30T12:54:57.476Z,21.01
2019-03-30T12:55:57.390Z,21.52
2019-03-30T12:56:57.386Z,21.80
2019-03-30T12:57:57.385Z,22.02
2019-03-30T12:58:57.359Z,21.99
2019-03-30T13:00:58.338Z,21.86
2019-03-30T13:01:57.332Z,22.18
2019-03-30T13:02:57.320Z,22.03
2019-03-30T13:03:57.309Z,21.88
2019-03-30T13:04:57.298Z,21.84
2019-03-30T13:05:57.288Z,22.00
2019-03-30T13:06:57.285Z,22.10
2019-03-30T13:07:57.264Z,22.35
2019-03-30T13:08:57.258Z,22.14
2019-03-30T13:09:57.262Z,22.18
2019-03-30T13:10:57.228Z,22.25
2019-03-30T13:11:57.218Z,22.24
2019-03-30T13:12:57.231Z,22.30
2019-03-30T13:13:57.198Z,22.54
2019-03-30T13:14:57.199Z,21.91
2019-03-30T13:15:57.177Z,21.75
2019-03-30T13:16:57.168Z,21.88
2019-03-30T13:17:57.180Z,22.31
2019-03-30T13:18:57.150Z,22.70
2019-03-30T13:19:57.142Z,22.55
2019-03-30T13:20:57.124Z,22.21
2019-03-30T13:21:57.118Z,22.60
2019-03-30T13:22:57.103Z,22.86
2019-03-30T13:23:57.225Z,22.97
2019-03-30T13:24:57.089Z,23.05
2019-03-30T13:26:03.370Z,23.27
2019-03-30T13:26:58.061Z,23.28
2019-03-30T13:27:57.056Z,22.86
2019-03-30T13:28:57.051Z,22.62
2019-03-30T13:29:57.030Z,22.65
2019-03-30T13:30:57.028Z,22.00
2019-03-30T13:31:57.000Z,21.61
2019-03-30T13:32:57.000Z,21.28
2019-03-30T13:33:56.989Z,21.42
2019-03-30T13:34:56.980Z,21.94
2019-03-30T13:35:56.959Z,22.33
2019-03-30T13:36:57.000Z,22.43
2019-03-30T13:37:56.943Z,22.31
2019-03-30T13:38:56.936Z,22.30
2019-03-30T13:39:56.919Z,22.77
2019-03-30T13:40:56.921Z,23.19
2019-03-30T13:41:56.898Z,23.39
2019-03-30T13:42:56.894Z,23.55
2019-03-30T13:43:56.871Z,23.48
2019-03-30T13:44:56.860Z,23.60
2019-03-30T13:45:56.855Z,23.93
2019-03-30T13:46:56.848Z,24.24
2019-03-30T13:47:56.842Z,24.45
2019-03-30T13:48:56.816Z,24.40
2019-03-30T13:49:56.810Z,24.32
2019-03-30T13:50:56.803Z,24.21
2019-03-30T13:51:56.793Z,24.12
2019-03-30T13:52:56.778Z,23.84
2019-03-30T13:53:56.763Z,23.79
2019-03-30T13:54:56.753Z,23.63
2019-03-30T13:55:56.744Z,23.65
2019-03-30T13:56:56.731Z,23.43
2019-03-30T13:57:56.723Z,23.50
2019-03-30T13:58:56.714Z,23.42
2019-03-30T13:59:56.699Z,23.47
2019-03-30T14:00:56.692Z,22.82
2019-03-30T14:01:56.683Z,23.04
2019-03-30T14:02:56.664Z,22.62
2019-03-30T14:03:56.655Z,22.51
2019-03-30T14:04:56.651Z,22.90
2019-03-30T14:05:56.635Z,23.00
2019-03-30T14:06:56.621Z,23.48
2019-03-30T14:07:56.609Z,23.78
2019-03-30T14:08:56.602Z,23.70
2019-03-30T14:09:56.593Z,23.84
2019-03-30T14:10:56.585Z,23.95
2019-03-30T14:11:56.569Z,23.93
2019-03-30T14:12:56.555Z,23.87
2019-03-30T14:13:56.542Z,23.60
2019-03-30T14:14:56.526Z,23.33
2019-03-30T14:15:56.521Z,23.43
2019-03-30T14:16:56.509Z,23.63
2019-03-30T14:17:56.498Z,23.73
2019-03-30T14:18:56.570Z,24.16
2019-03-30T14:19:56.493Z,24.10
2019-03-30T14:20:56.471Z,24.42
2019-03-30T14:21:56.463Z,24.80
2019-03-30T14:22:56.445Z,24.85
2019-03-30T14:23:56.445Z,24.02
2019-03-30T14:24:56.439Z,23.61
2019-03-30T14:25:56.419Z,23.90
2019-03-30T14:26:56.414Z,24.35
2019-03-30T14:27:56.386Z,24.52
2019-03-30T14:28:56.380Z,24.25
2019-03-30T14:29:56.373Z,24.18
2019-03-30T14:30:56.358Z,24.28
2019-03-30T14:31:56.350Z,24.21
2019-03-30T14:32:56.373Z,23.68
2019-03-30T14:33:56.351Z,22.91
2019-03-30T14:34:56.312Z,22.49
2019-03-30T14:35:56.307Z,22.42
2019-03-30T14:36:56.292Z,22.55
2019-03-30T14:37:56.287Z,22.64
2019-03-30T14:38:56.287Z,22.49